Accueil
METAR-TAF:

METAR-TAF

Aéroports :

Ajaccio, France

Aéroport d'Ajaccio-Napoléon-Bonaparte

latitude: 41-55N, longitude: 008-48E, altitude: 6 m

Observation

Le bulletin a été fait il y a 26 minutes, à 06:30 UTC
Vent calme
Température 26°C
Humidité 54%
Pression 1020 hPa
Visibilité 10 km ou plus
pas de nuages en-dessous de 1500 mètres et pas de cumulonimbus.

METAR: LFKJ 230630Z 00000KT CAVOK 26/16 Q1020 NOSIG

Heure: 08:56 (06:56 UTC)

Prévision

Le bulletin a été fait il y a 4 heures et 56 minutes, à 02:00 UTC
Prévision valable du 23 à 03 UTC au 24 à 03 UTC
Vent 3 kt de nord-est
Visibilité 10 km ou plus
pas de nuages en-dessous de 1500 mètres et pas de cumulonimbus.
Evoluant progressivement
du 23 à 08 UTC au 23 à 10 UTC
Vent 10 kt de ouest/sud-ouest
Evoluant progressivement
du 23 à 18 UTC au 23 à 20 UTC
Vent 3 kt de nord-est

TAF: LFKJ 230200Z 2303/2403 05003KT CAVOK BECMG 2308/2310 24010KT BECMG 2318/2320 04003KT

Observations et prévisions météorologiques de plus de 4000 aéroports (messages METAR et TAF).

Les stations disponibles sont représentées par des disques jaunes et rouges sur la carte.

Passer la souris dessus pour voir le nom de la station.

Cliquer dessus pour voir les observations et prévisions météorologiques.

Pour changer de carte: cliquez sur les boutons verts avec une croix noire pour zoomer, sur le bouton vert avec un tiret pour effectuer un zoom arrière, ou sur les flèches vertes pour les cartes adjacentes.


METAR-TAF: